createdAt,value
2022-07-31T07:29:03.437Z,27.64
2022-07-31T07:31:33.830Z,25.97
2022-07-31T07:34:31.289Z,27.84
2022-07-31T07:37:03.688Z,25.92
2022-07-31T07:39:53.367Z,27.36
2022-07-31T07:42:23.875Z,27.70
2022-07-31T07:50:18.147Z,28.26
2022-07-31T07:52:55.953Z,26.32
2022-07-31T08:13:11.493Z,29.75
2022-07-31T08:15:52.740Z,27.78
2022-07-31T08:18:28.764Z,26.86
2022-07-31T08:21:15.308Z,28.90
2022-07-31T08:24:22.902Z,28.56
2022-07-31T08:27:15.868Z,28.44
2022-07-31T08:29:48.474Z,29.59
2022-07-31T08:34:55.438Z,26.41
2022-07-31T08:44:01.575Z,29.77
2022-07-31T08:51:21.674Z,30.02
2022-07-31T08:54:11.341Z,29.45
2022-07-31T08:59:44.505Z,30.34
2022-07-31T09:02:34.724Z,29.76
2022-07-31T09:05:05.477Z,27.77
2022-07-31T09:10:25.311Z,30.54
2022-07-31T09:12:58.650Z,28.03
2022-07-31T09:15:36.486Z,30.28
2022-07-31T09:18:30.471Z,30.07
2022-07-31T09:21:24.052Z,30.76
2022-07-31T09:23:57.985Z,30.97
2022-07-31T09:26:38.520Z,30.71
2022-07-31T09:29:14.113Z,31.23
2022-07-31T09:31:43.265Z,31.23
2022-07-31T09:34:26.330Z,31.42
2022-07-31T09:37:31.310Z,30.67
2022-07-31T09:40:01.868Z,31.90
2022-07-31T09:45:19.631Z,31.28
2022-07-31T09:48:16.177Z,30.65
2022-07-31T09:51:17.241Z,31.63
2022-07-31T09:56:52.212Z,31.54
2022-07-31T09:59:52.624Z,32.19
2022-07-31T10:05:26.601Z,29.41
2022-07-31T10:13:53.537Z,27.21
2022-07-31T10:16:49.222Z,31.46
2022-07-31T10:19:31.669Z,30.12
2022-07-31T10:22:09.865Z,31.49
2022-07-31T10:24:43.648Z,31.71
2022-07-31T10:29:58.663Z,31.64
2022-07-31T10:32:28.004Z,32.51
2022-07-31T10:38:04.117Z,28.88
2022-07-31T10:40:59.810Z,32.68
2022-07-31T10:44:27.482Z,32.34
2022-07-31T10:46:58.515Z,31.91
2022-07-31T10:49:49.932Z,33.66
2022-07-31T10:52:48.500Z,31.41
2022-07-31T10:55:25.622Z,32.80
2022-07-31T11:11:12.251Z,32.32
2022-07-31T11:14:08.755Z,31.43
2022-07-31T11:16:51.140Z,31.98
2022-07-31T11:19:45.454Z,30.46
2022-07-31T11:25:16.441Z,31.04
2022-07-31T11:38:00.068Z,34.25
2022-07-31T11:41:44.598Z,32.86
2022-07-31T11:50:05.984Z,33.43
2022-07-31T12:22:55.769Z,30.73
2022-07-31T12:59:15.379Z,35.77
2022-07-31T13:05:13.327Z,35.21
2022-07-31T13:07:43.993Z,35.14
2022-07-31T13:10:24.646Z,32.19
2022-07-31T13:12:54.350Z,32.77
2022-07-31T13:15:31.075Z,35.18
2022-07-31T13:17:59.638Z,34.97
2022-07-31T13:20:28.973Z,34.28
2022-07-31T13:22:55.992Z,34.16
2022-07-31T13:25:49.338Z,34.08
2022-07-31T13:28:19.211Z,33.49
2022-07-31T13:31:05.711Z,34.17
2022-07-31T13:33:37.997Z,31.94
2022-07-31T13:40:55.849Z,34.15
2022-07-31T13:54:26.465Z,34.15
2022-07-31T16:40:41.764Z,29.20
2022-07-31T16:43:47.440Z,29.41
2022-07-31T16:46:09.007Z,27.79
2022-07-31T16:48:49.044Z,27.71
2022-07-31T16:51:32.292Z,26.80
2022-07-31T16:54:16.416Z,25.71
2022-07-31T16:56:51.568Z,27.89
2022-07-31T16:59:57.499Z,26.34
2022-07-31T17:09:34.099Z,28.92
2022-07-31T17:18:31.235Z,26.28
2022-07-31T17:21:25.106Z,25.17
2022-07-31T17:24:40.104Z,25.49
2022-07-31T18:05:01.868Z,28.89
2022-07-31T18:07:41.155Z,28.84
2022-07-31T18:10:54.236Z,25.14
2022-07-31T18:13:48.274Z,28.92
2022-07-31T18:16:51.355Z,27.85
2022-07-31T18:19:48.623Z,28.02
2022-07-31T18:28:05.113Z,25.34
2022-07-31T18:36:54.366Z,28.58
2022-07-31T18:39:27.757Z,26.66
2022-07-31T18:41:59.479Z,27.28
2022-07-31T18:58:22.155Z,27.58
2022-07-31T19:01:41.012Z,24.88
2022-07-31T19:24:15.156Z,27.94
2022-07-31T19:27:13.615Z,24.17
2022-07-31T20:29:25.116Z,27.15
2022-07-31T20:32:18.398Z,26.43
2022-07-31T20:34:53.688Z,26.46
2022-07-31T20:37:21.813Z,23.59
2022-07-31T20:42:28.403Z,23.03
2022-07-31T20:44:57.624Z,23.36
2022-07-31T20:50:00.702Z,23.16
2022-07-31T20:55:11.429Z,24.96
2022-07-31T20:57:50.487Z,25.16
2022-07-31T21:00:18.057Z,23.26
2022-07-31T21:11:52.362Z,22.43
2022-07-31T21:14:29.640Z,24.11
2022-07-31T21:17:05.054Z,22.29
2022-07-31T21:19:36.157Z,26.26
2022-07-31T21:22:07.789Z,22.99
2022-07-31T21:27:29.079Z,26.64
2022-07-31T21:30:03.618Z,22.66
2022-07-31T21:32:36.176Z,23.51
2022-07-31T21:35:10.841Z,22.76
2022-07-31T21:37:40.437Z,22.22
2022-07-31T21:40:09.175Z,22.67
2022-07-31T21:42:42.591Z,22.84
2022-07-31T21:45:17.234Z,22.69
2022-07-31T21:47:52.876Z,22.70
2022-07-31T21:50:29.097Z,22.60
2022-07-31T21:52:57.617Z,24.09
2022-07-31T21:55:24.818Z,25.79
2022-07-31T21:57:59.327Z,26.51
2022-07-31T22:00:29.706Z,22.75
2022-07-31T22:02:59.077Z,22.63
2022-07-31T22:05:48.145Z,23.16
2022-07-31T22:08:18.757Z,23.07
2022-07-31T22:10:54.186Z,23.12
2022-07-31T22:13:22.879Z,26.71
2022-07-31T22:16:05.753Z,22.78
2022-07-31T22:18:35.352Z,26.63
2022-07-31T22:21:07.105Z,23.59
2022-07-31T22:23:36.765Z,22.76
2022-07-31T22:26:06.470Z,24.48
2022-07-31T22:28:44.923Z,24.52
2022-07-31T22:31:12.367Z,26.10
2022-07-31T22:33:40.058Z,23.67
2022-07-31T22:36:09.362Z,25.51
2022-07-31T22:41:06.936Z,23.44
2022-07-31T22:44:13.439Z,23.23
2022-07-31T22:46:24.375Z,22.81
2022-07-31T22:48:54.107Z,23.49
2022-07-31T22:51:21.476Z,23.62
2022-07-31T22:53:50.440Z,23.02
2022-07-31T22:56:23.653Z,24.53
2022-07-31T22:58:51.501Z,23.48
2022-07-31T23:01:19.949Z,24.27
2022-07-31T23:03:48.995Z,23.07
2022-07-31T23:06:30.571Z,22.84
2022-07-31T23:09:04.064Z,23.97
2022-07-31T23:11:32.408Z,23.19
2022-07-31T23:13:59.819Z,24.69
2022-07-31T23:16:30.454Z,24.71
2022-07-31T23:18:59.205Z,25.65
2022-07-31T23:21:31.432Z,23.37
2022-07-31T23:24:02.090Z,23.14
2022-07-31T23:26:32.213Z,23.89
2022-07-31T23:31:30.945Z,23.85
2022-07-31T23:33:58.014Z,25.09
2022-07-31T23:36:25.553Z,23.82
2022-07-31T23:38:54.469Z,23.33
2022-07-31T23:41:42.586Z,26.37
2022-07-31T23:44:10.469Z,23.75
2022-07-31T23:49:10.045Z,23.25
2022-07-31T23:59:43.159Z,23.11
